Hwy 51 at Exposition Atmospheric Data: 06/24/2022 Summary  Detailed Graphs  Station List

  Temperature     Wind Precipitation Visibility
Timestamp Air Wet
Bulb
Dew-
point
24-hr
Max
24-hr
Min
Relative
Humidity
Atmospheric
Pressure
Avg
Speed
Avg
Dir
Spot
Speed
Spot
Dir
Max
Speed
Max
Dir
  Rate Situation Start End 1 hr 3 hr 6 hr 12 hr 24 hr   Situation
Date Time °F °F °F °F °F % in Hg mph ° mph ° mph ° Y/N in/hr text Date Time Date Time in in in in in mi text
06/24/2022 12:14 AM 71.96 58.46 48.74 100.94 72.32 44.0 Not Reported 5.14 SW 3.80 S 6.26 S No 0.000 No Precipitation 06/05/2022 09:12 AM 06/05/2022 09:17 AM 0.000 0.000 0.000 0.000 0.000 3.54 Clear
06/24/2022 12:29 AM 72.32 58.82 49.10 100.94 72.32 44.0 Not Reported 4.92 SW 5.37 SW 6.26 SW No 0.000 No Precipitation 06/05/2022 09:12 AM 06/05/2022 09:17 AM 0.000 0.000 0.000 0.000 0.000 3.78 Clear
06/24/2022 12:44 AM 72.50 59.00 49.28 100.94 72.32 44.0 Not Reported 4.47 SW 5.37 SW 8.50 SW No 0.000 No Precipitation 06/05/2022 09:12 AM 06/05/2022 09:17 AM 0.000 0.000 0.000 0.000 0.000 3.52 Clear
06/24/2022 12:59 AM 71.60 58.46 49.10 100.94 72.32 45.0 Not Reported 2.01 S 2.46 S 5.82 S No 0.000 No Precipitation 06/05/2022 09:12 AM 06/05/2022 09:17 AM 0.000 0.000 0.000 0.000 0.000 3.31 Clear
06/24/2022 01:14 AM 72.14 58.64 48.92 100.94 72.32 44.0 Not Reported 4.70 SW 4.03 S 8.50 SW No 0.000 No Precipitation 06/05/2022 09:12 AM 06/05/2022 09:17 AM 0.000 0.000 0.000 0.000 0.000 3.54 Clear
06/24/2022 01:29 AM 71.24 58.28 48.74 100.94 72.32 45.0 Not Reported 2.46 S 3.80 S 6.26 SW No 0.000 No Precipitation 06/05/2022 09:12 AM 06/05/2022 09:17 AM 0.000 0.000 0.000 0.000 0.000 3.56 Clear
06/24/2022 01:44 AM 70.34 58.10 49.10 100.94 72.32 47.0 Not Reported 3.36 S 3.58 SE 3.80 S No 0.000 No Precipitation 06/05/2022 09:12 AM 06/05/2022 09:17 AM 0.000 0.000 0.000 0.000 0.000 3.71 Clear
06/24/2022 01:59 AM 69.08 57.74 49.64 100.94 72.32 50.0 Not Reported 4.25 S 4.47 S 4.70 S No 0.000 No Precipitation 06/05/2022 09:12 AM 06/05/2022 09:17 AM 0.000 0.000 0.000 0.000 0.000 3.48 Clear
06/24/2022 02:14 AM 69.26 57.74 49.28 100.94 72.32 49.0 Not Reported 3.58 S 3.80 S 4.47 S No 0.000 No Precipitation 06/05/2022 09:12 AM 06/05/2022 09:17 AM 0.000 0.000 0.000 0.000 0.000 3.44 Clear
06/24/2022 02:29 AM 69.26 57.74 49.28 100.94 72.32 49.0 Not Reported 3.80 S 3.36 S 3.80 S No 0.000 No Precipitation 06/05/2022 09:12 AM 06/05/2022 09:17 AM 0.000 0.000 0.000 0.000 0.000 3.45 Clear
06/24/2022 02:44 AM 68.72 57.20 48.74 100.94 72.32 49.0 Not Reported 3.36 S 4.03 SW 3.80 S No 0.000 No Precipitation 06/05/2022 09:12 AM 06/05/2022 09:17 AM 0.000 0.000 0.000 0.000 0.000 3.47 Clear
06/24/2022 02:59 AM 68.00 57.20 49.10 100.94 72.32 51.0 Not Reported 4.92 S 3.36 S 4.47 S No 0.000 No Precipitation 06/05/2022 09:12 AM 06/05/2022 09:17 AM 0.000 0.000 0.000 0.000 0.000 3.58 Clear
06/24/2022 03:14 AM 69.62 57.74 48.92 100.94 72.32 48.0 Not Reported 5.14 S 5.37 SW 6.04 S No 0.000 No Precipitation 06/05/2022 09:12 AM 06/05/2022 09:17 AM 0.000 0.000 0.000 0.000 0.000 3.57 Clear
06/24/2022 03:29 AM 69.98 57.74 48.74 100.94 72.32 47.0 Not Reported 4.03 SW 4.25 SW 5.37 SW No 0.000 No Precipitation 06/05/2022 09:12 AM 06/05/2022 09:17 AM 0.000 0.000 0.000 0.000 0.000 3.52 Clear
06/24/2022 03:44 AM 69.98 57.74 48.74 100.94 72.32 47.0 Not Reported 4.03 SW 4.25 SW 5.37 SW No 0.000 No Precipitation 06/05/2022 09:12 AM 06/05/2022 09:17 AM 0.000 0.000 0.000 0.000 0.000 3.65 Clear
06/24/2022 03:59 AM 68.54 57.02 48.56 100.94 72.32 49.0 Not Reported 5.14 SW 4.92 S 5.59 S No 0.000 No Precipitation 06/05/2022 09:12 AM 06/05/2022 09:17 AM 0.000 0.000 0.000 0.000 0.000 3.44 Clear
06/24/2022 04:14 AM 68.18 57.02 48.74 100.94 72.32 50.0 Not Reported 5.14 S 5.59 S 5.82 S No 0.000 No Precipitation 06/05/2022 09:12 AM 06/05/2022 09:17 AM 0.000 0.000 0.000 0.000 0.000 3.46 Clear
06/24/2022 04:29 AM 68.54 57.56 49.64 100.94 72.32 51.0 Not Reported 6.26 SW 6.04 SW 7.61 SW No 0.000 No Precipitation 06/05/2022 09:12 AM 06/05/2022 09:17 AM 0.000 0.000 0.000 0.000 0.000 3.31 Clear
06/24/2022 04:44 AM 67.82 57.20 49.46 100.94 72.32 52.0 Not Reported 5.14 S 7.61 SW 6.93 SW No 0.000 No Precipitation 06/05/2022 09:12 AM 06/05/2022 09:17 AM 0.000 0.000 0.000 0.000 0.000 3.54 Clear
06/24/2022 04:59 AM 67.28 57.20 50.00 100.94 72.32 54.0 Not Reported 3.80 S 4.92 S 7.61 SW No 0.000 No Precipitation 06/05/2022 09:12 AM 06/05/2022 09:17 AM 0.000 0.000 0.000 0.000 0.000 3.06 Clear
06/24/2022 05:14 AM 66.56 57.20 50.36 100.94 72.32 56.0 Not Reported 3.58 S 4.25 S 6.49 SW No 0.000 No Precipitation 06/05/2022 09:12 AM 06/05/2022 09:17 AM 0.000 0.000 0.000 0.000 0.000 3.43 Clear
06/24/2022 05:29 AM 65.66 56.84 50.36 100.94 72.32 58.0 Not Reported 3.36 S 5.14 S 5.37 S No 0.000 No Precipitation 06/05/2022 09:12 AM 06/05/2022 09:17 AM 0.000 0.000 0.000 0.000 0.000 3.47 Clear
06/24/2022 05:44 AM 66.92 57.38 50.72 100.94 72.32 56.0 Not Reported 2.24 S 3.13 S 5.14 SW No 0.000 No Precipitation 06/05/2022 09:12 AM 06/05/2022 09:17 AM 0.000 0.000 0.000 0.000 0.000 3.19 Clear
06/24/2022 05:59 AM 67.46 57.56 50.72 100.94 72.32 55.0 Not Reported 3.13 SW 3.13 SW 4.03 S No 0.000 No Precipitation 06/05/2022 09:12 AM 06/05/2022 09:17 AM 0.000 0.000 0.000 0.000 0.000 2.77 Clear
06/24/2022 06:14 AM 67.82 57.74 50.54 100.94 72.32 54.0 Not Reported 3.13 SW 4.03 SW 3.58 S No 0.000 No Precipitation 06/05/2022 09:12 AM 06/05/2022 09:17 AM 0.000 0.000 0.000 0.000 0.000 2.26 Clear
06/24/2022 06:29 AM 69.08 58.28 50.72 100.94 72.32 52.0 Not Reported 5.37 SW 3.58 S 4.92 SW No 0.000 No Precipitation 06/05/2022 09:12 AM 06/05/2022 09:17 AM 0.000 0.000 0.000 0.000 0.000 0.83 Clear
06/24/2022 06:44 AM 69.80 58.82 51.26 100.94 72.32 52.0 Not Reported 5.37 SW 5.82 SW 6.04 SW No 0.000 No Precipitation 06/05/2022 09:12 AM 06/05/2022 09:17 AM 0.000 0.000 0.000 0.000 0.000 0.87 Clear
06/24/2022 06:59 AM 70.34 59.00 51.26 100.94 72.32 51.0 Not Reported 6.04 SW 5.14 SW 7.83 SW No 0.000 No Precipitation 06/05/2022 09:12 AM 06/05/2022 09:17 AM 0.000 0.000 0.000 0.000 0.000 3.56 Clear
06/24/2022 07:14 AM 71.42 59.90 52.34 100.94 72.32 51.0 Not Reported 4.03 SW 4.92 SW 6.49 S No 0.000 No Precipitation 06/05/2022 09:12 AM 06/05/2022 09:17 AM 0.000 0.000 0.000 0.000 0.000 1.87 Clear
06/24/2022 07:29 AM 72.32 60.26 51.98 100.94 72.32 49.0 Not Reported 3.36 SW 4.03 S 8.28 SW No 0.000 No Precipitation 06/05/2022 09:12 AM 06/05/2022 09:17 AM 0.000 0.000 0.000 0.000 0.000 3.60 Clear
06/24/2022 07:44 AM 73.76 61.16 52.88 100.94 72.32 48.0 Not Reported 3.80 S 5.59 S 6.93 SW No 0.000 No Precipitation 06/05/2022 09:12 AM 06/05/2022 09:17 AM 0.000 0.000 0.000 0.000 0.000 1.60 Clear
06/24/2022 07:59 AM 73.40 60.44 51.98 100.94 72.32 47.0 Not Reported 6.93 SW 4.70 SW 8.05 SW No 0.000 No Precipitation 06/05/2022 09:12 AM 06/05/2022 09:17 AM 0.000 0.000 0.000 0.000 0.000 1.87 Clear
06/24/2022 08:14 AM 74.48 61.16 52.34 100.94 72.32 46.0 Not Reported 6.26 SW 8.05 SW 7.61 W No 0.000 No Precipitation 06/05/2022 09:12 AM 06/05/2022 09:17 AM 0.000 0.000 0.000 0.000 0.000 3.29 Clear
06/24/2022 08:29 AM 75.20 62.06 53.60 100.94 72.32 47.0 Not Reported 5.59 SW 3.80 SW 8.05 SW No 0.000 No Precipitation 06/05/2022 09:12 AM 06/05/2022 09:17 AM 0.000 0.000 0.000 0.000 0.000 0.96 Clear
06/24/2022 08:44 AM 76.28 62.24 53.42 100.94 72.32 45.0 Not Reported 4.70 SW 3.13 SW 6.26 SW No 0.000 No Precipitation 06/05/2022 09:12 AM 06/05/2022 09:17 AM 0.000 0.000 0.000 0.000 0.000 2.80 Clear
06/24/2022 08:59 AM 76.64 62.78 54.32 100.94 72.32 46.0 Not Reported 3.58 S 3.36 SW 7.38 SW No 0.000 No Precipitation 06/05/2022 09:12 AM 06/05/2022 09:17 AM 0.000 0.000 0.000 0.000 0.000 0.60 Clear
06/24/2022 09:14 AM 77.90 62.96 53.60 100.94 72.32 43.0 Not Reported 6.04 W 4.92 W 6.93 W No 0.000 No Precipitation 06/05/2022 09:12 AM 06/05/2022 09:17 AM 0.000 0.000 0.000 0.000 0.000 3.00 Clear
06/24/2022 09:29 AM 78.80 63.68 54.32 100.94 72.32 43.0 Not Reported 4.47 W 3.58 W 6.49 SW No 0.000 No Precipitation 06/05/2022 09:12 AM 06/05/2022 09:17 AM 0.000 0.000 0.000 0.000 0.000 2.72 Clear
06/24/2022 09:44 AM 79.88 63.86 53.96 100.94 72.32 41.0 Not Reported 4.25 SW 4.47 S 6.04 SW No 0.000 No Precipitation 06/05/2022 09:12 AM 06/05/2022 09:17 AM 0.000 0.000 0.000 0.000 0.000 2.48 Clear
06/24/2022 09:59 AM 80.96 64.40 54.32 100.94 72.32 40.0 Not Reported 4.47 S 5.82 SW 6.71 S No 0.000 No Precipitation 06/05/2022 09:12 AM 06/05/2022 09:17 AM 0.000 0.000 0.000 0.000 0.000 1.35 Clear
06/24/2022 10:14 AM 81.86 65.48 55.76 100.94 72.32 41.0 Not Reported 3.80 SW 5.82 S 7.83 SW No 0.000 No Precipitation 06/05/2022 09:12 AM 06/05/2022 09:17 AM 0.000 0.000 0.000 0.000 0.000 1.53 Clear
06/24/2022 10:29 AM 82.40 64.76 54.14 100.94 72.32 38.0 Not Reported 6.71 SW 7.61 SW 8.50 SW No 0.000 No Precipitation 06/05/2022 09:12 AM 06/05/2022 09:17 AM 0.000 0.000 0.000 0.000 0.000 1.68 Clear
06/24/2022 10:44 AM 83.66 64.76 53.06 100.94 72.32 35.0 Not Reported 6.26 SW 7.16 SW 8.72 SW No 0.000 No Precipitation 06/05/2022 09:12 AM 06/05/2022 09:17 AM 0.000 0.000 0.000 0.000 0.000 0.81 Clear
06/24/2022 10:59 AM 84.38 64.58 52.16 100.94 72.32 33.0 Not Reported 8.28 SW 5.14 W 8.72 SW No 0.000 No Precipitation 06/05/2022 09:12 AM 06/05/2022 09:17 AM 0.000 0.000 0.000 0.000 0.000 2.90 Clear
06/24/2022 11:14 AM 87.62 66.56 54.14 100.94 72.32 32.0 Not Reported 7.61 SW 5.82 SW 8.50 SW No 0.000 No Precipitation 06/05/2022 09:12 AM 06/05/2022 09:17 AM 0.000 0.000 0.000 0.000 0.000 3.35 Clear
06/24/2022 11:29 AM 88.88 66.56 53.42 100.94 72.32 30.0 Not Reported 5.59 SW 4.47 W 9.40 SW No 0.000 No Precipitation 06/05/2022 09:12 AM 06/05/2022 09:17 AM 0.000 0.000 0.000 0.000 0.000 0.90 Clear
06/24/2022 11:44 AM 89.96 67.46 54.32 100.94 72.32 30.0 Not Reported 5.37 W 7.16 SW 8.05 W No 0.000 No Precipitation 06/05/2022 09:12 AM 06/05/2022 09:17 AM 0.000 0.000 0.000 0.000 0.000 2.83 Clear
06/24/2022 11:59 AM 91.22 68.36 55.40 100.94 72.32 30.0 Not Reported 4.03 NW 4.92 W 7.16 SW No 0.000 No Precipitation 06/05/2022 09:12 AM 06/05/2022 09:17 AM 0.000 0.000 0.000 0.000 0.000 2.19 Clear
06/24/2022 12:14 PM 91.40 68.00 54.68 100.94 72.32 29.0 Not Reported 3.58 W 5.59 W 9.17 W No 0.000 No Precipitation 06/05/2022 09:12 AM 06/05/2022 09:17 AM 0.000 0.000 0.000 0.000 0.000 2.57 Clear
06/24/2022 12:29 PM 92.30 67.28 52.34 100.94 72.32 26.0 Not Reported 5.14 W 3.58 W 5.59 NW No 0.000 No Precipitation 06/05/2022 09:12 AM 06/05/2022 09:17 AM 0.000 0.000 0.000 0.000 0.000 1.12 Clear
06/24/2022 12:44 PM 93.92 68.36 53.78 100.94 72.32 26.0 Not Reported 2.24 NW 2.01 NW 7.38 W No 0.000 No Precipitation 06/05/2022 09:12 AM 06/05/2022 09:17 AM 0.000 0.000 0.000 0.000 0.000 0.83 Clear
06/24/2022 12:59 PM 94.64 67.10 49.82 100.94 72.32 22.0 Not Reported 5.14 W 3.58 W 9.62 W No 0.000 No Precipitation 06/05/2022 09:12 AM 06/05/2022 09:17 AM 0.000 0.000 0.000 0.000 0.000 1.84 Clear
06/24/2022 01:14 PM 95.18 67.82 51.44 100.94 72.32 23.0 Not Reported 2.91 NW 5.37 SW 8.72 W No 0.000 No Precipitation 06/05/2022 09:12 AM 06/05/2022 09:17 AM 0.000 0.000 0.000 0.000 0.000 1.13 Clear
06/24/2022 01:29 PM 95.90 68.36 52.16 100.94 72.32 23.0 Not Reported 2.68 NW 2.24 W 8.05 W No 0.000 No Precipitation 06/05/2022 09:12 AM 06/05/2022 09:17 AM 0.000 0.000 0.000 0.000 0.000 2.43 Clear
06/24/2022 01:44 PM 96.26 68.54 52.34 100.94 72.32 23.0 Not Reported 6.71 SW 6.26 W 8.05 SW No 0.000 No Precipitation 06/05/2022 09:12 AM 06/05/2022 09:17 AM 0.000 0.000 0.000 0.000 0.000 0.99 Clear
06/24/2022 01:59 PM 96.62 67.82 50.18 100.94 72.32 21.0 Not Reported 3.58 NW 2.46 NW 8.05 W No 0.000 No Precipitation 06/05/2022 09:12 AM 06/05/2022 09:17 AM 0.000 0.000 0.000 0.000 0.000 3.46 Clear
06/24/2022 02:14 PM 97.88 68.72 51.26 100.94 72.32 21.0 Not Reported 4.47 SW 2.24 W 6.49 SW No 0.000 No Precipitation 06/05/2022 09:12 AM 06/05/2022 09:17 AM 0.000 0.000 0.000 0.000 0.000 2.25 Clear
06/24/2022 02:29 PM 98.24 67.82 48.92 100.94 72.32 19.0 Not Reported 3.13 SW 6.04 N 6.93 NW No 0.000 No Precipitation 06/05/2022 09:12 AM 06/05/2022 09:17 AM 0.000 0.000 0.000 0.000 0.000 3.06 Clear
06/24/2022 02:44 PM 97.52 66.38 45.32 100.94 72.32 17.0 Not Reported 5.82 SW 5.14 SW 8.72 W No 0.000 No Precipitation 06/05/2022 09:12 AM 06/05/2022 09:17 AM 0.000 0.000 0.000 0.000 0.000 3.21 Clear
06/24/2022 02:59 PM 98.78 66.56 44.78 100.94 72.32 16.0 Not Reported 5.82 W 8.28 SW 12.75 SW No 0.000 No Precipitation 06/05/2022 09:12 AM 06/05/2022 09:17 AM 0.000 0.000 0.000 0.000 0.000 2.43 Clear
06/24/2022 03:14 PM 99.68 67.10 45.50 100.94 72.32 16.0 Not Reported 7.61 W 6.26 W 9.62 SW No 0.000 No Precipitation 06/05/2022 09:12 AM 06/05/2022 09:17 AM 0.000 0.000 0.000 0.000 0.000 3.09 Clear
06/24/2022 03:29 PM 99.14 65.66 41.54 100.94 72.32 14.0 Not Reported 6.71 W 4.47 W 10.07 SW No 0.000 No Precipitation 06/05/2022 09:12 AM 06/05/2022 09:17 AM 0.000 0.000 0.000 0.000 0.000 3.62 Clear
06/24/2022 03:44 PM 100.22 67.46 45.86 100.94 72.32 16.0 Not Reported 4.70 W 5.14 NW 11.18 W No 0.000 No Precipitation 06/05/2022 09:12 AM 06/05/2022 09:17 AM 0.000 0.000 0.000 0.000 0.000 3.32 Clear
06/24/2022 03:59 PM 99.68 66.02 41.90 100.94 72.32 14.0 Not Reported 4.92 W 9.17 W 10.74 W No 0.000 No Precipitation 06/05/2022 09:12 AM 06/05/2022 09:17 AM 0.000 0.000 0.000 0.000 0.000 1.78 Clear
06/24/2022 04:14 PM 99.68 66.02 41.90 100.94 72.32 14.0 Not Reported 5.82 NW 7.61 NW 10.07 W No 0.000 No Precipitation 06/05/2022 09:12 AM 06/05/2022 09:17 AM 0.000 0.000 0.000 0.000 0.000 3.93 Clear
06/24/2022 04:29 PM 99.68 66.56 43.70 100.94 72.32 15.0 Not Reported 9.17 W 3.36 NW 12.30 W No 0.000 No Precipitation 06/05/2022 09:12 AM 06/05/2022 09:17 AM 0.000 0.000 0.000 0.000 0.000 3.15 Clear
06/24/2022 04:44 PM 98.96 66.02 43.16 100.94 72.32 15.0 Not Reported 9.62 W 11.41 W 11.18 W No 0.000 No Precipitation 06/05/2022 09:12 AM 06/05/2022 09:17 AM 0.000 0.000 0.000 0.000 0.000 3.41 Clear
06/24/2022 04:59 PM 99.86 66.56 43.88 100.94 72.32 15.0 Not Reported 9.17 W 7.16 NW 11.86 W No 0.000 No Precipitation 06/05/2022 09:12 AM 06/05/2022 09:17 AM 0.000 0.000 0.000 0.000 0.000 3.75 Clear
06/24/2022 05:14 PM 98.06 66.20 44.24 100.94 65.48 16.0 Not Reported 10.29 SW 8.28 SW 12.08 SW No 0.000 No Precipitation 06/05/2022 09:12 AM 06/05/2022 09:17 AM 0.000 0.000 0.000 0.000 0.000 2.67 Clear
06/24/2022 05:29 PM 99.32 66.38 43.52 100.94 65.48 15.0 Not Reported 8.50 W 8.72 W 12.75 SW No 0.000 No Precipitation 06/05/2022 09:12 AM 06/05/2022 09:17 AM 0.000 0.000 0.000 0.000 0.000 3.73 Clear
06/24/2022 05:44 PM 98.42 66.92 46.04 100.94 65.48 17.0 Not Reported 8.05 W 5.82 W 11.41 NW No 0.000 No Precipitation 06/05/2022 09:12 AM 06/05/2022 09:17 AM 0.000 0.000 0.000 0.000 0.000 3.52 Clear
06/24/2022 05:59 PM 98.96 67.28 46.40 100.94 65.48 17.0 Not Reported 5.82 W 8.28 W 10.96 SW No 0.000 No Precipitation 06/05/2022 09:12 AM 06/05/2022 09:17 AM 0.000 0.000 0.000 0.000 0.000 3.51 Clear
06/24/2022 06:14 PM 97.70 66.38 45.50 100.94 65.48 17.0 Not Reported 6.71 SW 6.04 SW 10.29 W No 0.000 No Precipitation 06/05/2022 09:12 AM 06/05/2022 09:17 AM 0.000 0.000 0.000 0.000 0.000 3.67 Clear
06/24/2022 06:29 PM 98.24 65.66 42.62 100.94 65.48 15.0 Not Reported 6.26 W 5.82 W 12.53 NW No 0.000 No Precipitation 06/05/2022 09:12 AM 06/05/2022 09:17 AM 0.000 0.000 0.000 0.000 0.000 3.73 Clear
06/24/2022 06:44 PM 95.36 64.04 40.28 100.94 65.48 15.0 Not Reported 13.65 SW 9.40 W 15.88 SW No 0.000 No Precipitation 06/05/2022 09:12 AM 06/05/2022 09:17 AM 0.000 0.000 0.000 0.000 0.000 2.90 Clear
06/24/2022 06:59 PM 95.90 64.76 42.44 100.94 65.48 16.0 Not Reported 8.95 SW 7.16 W 11.41 SW No 0.000 No Precipitation 06/05/2022 09:12 AM 06/05/2022 09:17 AM 0.000 0.000 0.000 0.000 0.000 3.48 Clear
06/24/2022 07:14 PM 93.92 64.22 42.44 100.94 65.48 17.0 Not Reported 8.50 SW 6.04 SW 10.96 SW No 0.000 No Precipitation 06/05/2022 09:12 AM 06/05/2022 09:17 AM 0.000 0.000 0.000 0.000 0.000 3.79 Clear
06/24/2022 07:29 PM 94.10 65.30 45.50 100.94 65.48 19.0 Not Reported 6.71 SW 5.59 SW 10.96 SW No 0.000 No Precipitation 06/05/2022 09:12 AM 06/05/2022 09:17 AM 0.000 0.000 0.000 0.000 0.000 3.62 Clear
06/24/2022 07:44 PM 91.94 65.30 47.66 100.94 65.48 22.0 Not Reported 5.82 SW 8.72 SW 7.16 SW No 0.000 No Precipitation 06/05/2022 09:12 AM 06/05/2022 09:17 AM 0.000 0.000 0.000 0.000 0.000 3.60 Clear
06/24/2022 07:59 PM 89.60 65.84 51.08 100.94 65.48 27.0 Not Reported 7.38 SW 6.71 SW 8.72 SW No 0.000 No Precipitation 06/05/2022 09:12 AM 06/05/2022 09:17 AM 0.000 0.000 0.000 0.000 0.000 3.40 Clear
06/24/2022 08:14 PM 87.44 66.02 53.06 100.94 65.48 31.0 Not Reported 5.14 SW 6.93 SW 10.07 SW No 0.000 No Precipitation 06/05/2022 09:12 AM 06/05/2022 09:17 AM 0.000 0.000 0.000 0.000 0.000 3.23 Clear
06/24/2022 08:29 PM 85.28 65.84 54.50 100.94 65.48 35.0 Not Reported 7.83 SW 6.04 SW 12.08 W No 0.000 No Precipitation 06/05/2022 09:12 AM 06/05/2022 09:17 AM 0.000 0.000 0.000 0.000 0.000 3.08 Clear
06/24/2022 08:44 PM 85.64 66.56 55.58 100.94 65.48 36.0 Not Reported 7.16 W 4.92 W 9.17 SW No 0.000 No Precipitation 06/05/2022 09:12 AM 06/05/2022 09:17 AM 0.000 0.000 0.000 0.000 0.000 3.05 Clear
06/24/2022 08:59 PM 83.84 65.84 55.40 100.94 65.48 38.0 Not Reported 8.72 SW 5.82 SW 11.18 SW No 0.000 No Precipitation 06/05/2022 09:12 AM 06/05/2022 09:17 AM 0.000 0.000 0.000 0.000 0.000 2.44 Clear
06/24/2022 09:14 PM 80.96 64.94 55.58 100.94 65.48 42.0 Not Reported 4.03 SW 4.47 SW 6.04 SW No 0.000 No Precipitation 06/05/2022 09:12 AM 06/05/2022 09:17 AM 0.000 0.000 0.000 0.000 0.000 3.01 Clear
06/24/2022 09:29 PM 79.88 64.76 55.94 100.94 65.48 44.0 Not Reported 3.13 SW 2.24 S 6.26 SW No 0.000 No Precipitation 06/05/2022 09:12 AM 06/05/2022 09:17 AM 0.000 0.000 0.000 0.000 0.000 3.15 Clear
06/24/2022 09:44 PM 79.34 64.40 55.40 100.94 65.48 44.0 Not Reported 4.25 SW 4.70 SW 6.93 SW No 0.000 No Precipitation 06/05/2022 09:12 AM 06/05/2022 09:17 AM 0.000 0.000 0.000 0.000 0.000 3.08 Clear
06/24/2022 09:59 PM 77.90 63.86 55.40 100.94 65.48 46.0 Not Reported 5.37 SW 6.49 SW 6.49 SW No 0.000 No Precipitation 06/05/2022 09:12 AM 06/05/2022 09:17 AM 0.000 0.000 0.000 0.000 0.000 3.11 Clear
06/24/2022 10:14 PM 77.72 63.68 55.22 100.94 65.48 46.0 Not Reported 6.26 SW 7.38 SW 7.16 SW No 0.000 No Precipitation 06/05/2022 09:12 AM 06/05/2022 09:17 AM 0.000 0.000 0.000 0.000 0.000 3.10 Clear
06/24/2022 10:29 PM 77.36 63.50 54.86 100.94 65.48 46.0 Not Reported 7.16 SW 6.93 SW 9.84 SW No 0.000 No Precipitation 06/05/2022 09:12 AM 06/05/2022 09:17 AM 0.000 0.000 0.000 0.000 0.000 3.11 Clear
06/24/2022 10:44 PM 76.10 62.42 53.78 100.94 65.48 46.0 Not Reported 5.59 SW 5.82 SW 8.28 SW No 0.000 No Precipitation 06/05/2022 09:12 AM 06/05/2022 09:17 AM 0.000 0.000 0.000 0.000 0.000 3.27 Clear
06/24/2022 10:59 PM 74.84 61.88 53.78 100.94 65.48 48.0 Not Reported 3.58 SW 3.80 SW 8.28 SW No 0.000 No Precipitation 06/05/2022 09:12 AM 06/05/2022 09:17 AM 0.000 0.000 0.000 0.000 0.000 3.38 Clear
06/24/2022 11:14 PM 74.30 61.16 52.70 100.94 65.48 47.0 Not Reported 8.50 SW 7.83 SW 9.62 SW No 0.000 No Precipitation 06/05/2022 09:12 AM 06/05/2022 09:17 AM 0.000 0.000 0.000 0.000 0.000 3.26 Clear
06/24/2022 11:29 PM 73.40 60.80 52.52 100.94 65.48 48.0 Not Reported 5.14 SW 3.58 SW 8.95 SW No 0.000 No Precipitation 06/05/2022 09:12 AM 06/05/2022 09:17 AM 0.000 0.000 0.000 0.000 0.000 3.32 Clear
06/24/2022 11:44 PM 72.50 60.26 52.16 100.94 65.48 49.0 Not Reported 5.37 SW 4.47 SW 8.50 SW No 0.000 No Precipitation 06/05/2022 09:12 AM 06/05/2022 09:17 AM 0.000 0.000 0.000 0.000 0.000 3.27 Clear
06/24/2022 11:59 PM 70.70 59.36 51.62 100.94 65.48 51.0 Not Reported 3.13 S 5.14 SW 6.26 SW No 0.000 No Precipitation 06/05/2022 09:12 AM 06/05/2022 09:17 AM 0.000 0.000 0.000 0.000 0.000 3.14 Clear